Weather at Edmonton / Sturgeon Community Hospital Heliport

Public forecast

Using degrees Celsius for public forecast. Weather courtesy of forecast.io.

Closest aviation weather report (METAR) to Edmonton / Sturgeon Community Hospital Heliport

Closest report is Edmonton (CFB Namao) Heliport, 5.6 nm (10.3 km) E. Retrieved 2020/10/25 12:00 UTC (1 hour ago):

CYED 251200Z AUTO 24007KT 9SM FEW087 M13/M16 A3045 RMK SLP363

Closest aviation forecast (TAF) to Edmonton / Sturgeon Community Hospital Heliport

Forecast is more than 12 hours old.

Closest forecast is Edmonton (CFB Namao) Heliport, 5.6 nm (10.3 km) E. Retrieved 2020-10-24 00:33 UTC (2 days ago):

TAF TAF CYED 232330Z 2400/2412 02005KT P6SM FEW020 BKN050 TEMPO 2400/2412 P6SM -SN BKN020 OVC050 BECMG 2406/2408 32005KT RMK FCST BASED ON AUTO OBS NXT FCST BY 240600Z